sensor_id;sensor_type;location;lat;lon;timestamp;pressure;altitude;pressure_sealevel;temperature
79488;BMP180;68949;53.176;18.088;2023-04-24T00:01:06;99742.60;;;
79488;BMP180;68949;53.176;18.088;2023-04-24T00:03:34;99741.60;;;
79488;BMP180;68949;53.176;18.088;2023-04-24T00:06:01;99736.20;;;
79488;BMP180;68949;53.176;18.088;2023-04-24T00:08:29;99735.20;;;
79488;BMP180;68949;53.176;18.088;2023-04-24T00:10:56;99741.60;;;
79488;BMP180;68949;53.176;18.088;2023-04-24T00:13:23;99739.20;;;
79488;BMP180;68949;53.176;18.088;2023-04-24T00:15:50;99731.80;;;
79488;BMP180;68949;53.176;18.088;2023-04-24T00:18:17;99734.80;;;
79488;BMP180;68949;53.176;18.088;2023-04-24T00:20:44;99735.80;;;
79488;BMP180;68949;53.176;18.088;2023-04-24T00:23:11;99733.20;;;
79488;BMP180;68949;53.176;18.088;2023-04-24T00:25:38;99721.00;;;
79488;BMP180;68949;53.176;18.088;2023-04-24T00:28:05;99719.60;;;
79488;BMP180;68949;53.176;18.088;2023-04-24T00:30:32;99719.60;;;
79488;BMP180;68949;53.176;18.088;2023-04-24T00:32:58;99718.00;;;
79488;BMP180;68949;53.176;18.088;2023-04-24T00:35:25;99710.00;;;
79488;BMP180;68949;53.176;18.088;2023-04-24T00:37:52;99711.00;;;
79488;BMP180;68949;53.176;18.088;2023-04-24T00:40:19;99711.80;;;
79488;BMP180;68949;53.176;18.088;2023-04-24T00:42:46;99710.00;;;
79488;BMP180;68949;53.176;18.088;2023-04-24T00:45:13;99710.40;;;
79488;BMP180;68949;53.176;18.088;2023-04-24T00:47:41;99703.60;;;
79488;BMP180;68949;53.176;18.088;2023-04-24T00:50:08;99700.20;;;
79488;BMP180;68949;53.176;18.088;2023-04-24T00:52:35;99697.40;;;
79488;BMP180;68949;53.176;18.088;2023-04-24T00:55:02;99693.40;;;
79488;BMP180;68949;53.176;18.088;2023-04-24T00:57:30;99694.00;;;
79488;BMP180;68949;53.176;18.088;2023-04-24T00:59:57;99690.60;;;
79488;BMP180;68949;53.176;18.088;2023-04-24T01:02:25;99702.40;;;
79488;BMP180;68949;53.176;18.088;2023-04-24T01:04:52;99700.60;;;
79488;BMP180;68949;53.176;18.088;2023-04-24T01:07:20;99701.40;;;
79488;BMP180;68949;53.176;18.088;2023-04-24T01:09:48;99699.40;;;
79488;BMP180;68949;53.176;18.088;2023-04-24T01:12:19;99698.40;;;
79488;BMP180;68949;53.176;18.088;2023-04-24T01:14:46;99695.60;;;
79488;BMP180;68949;53.176;18.088;2023-04-24T01:17:13;99697.60;;;
79488;BMP180;68949;53.176;18.088;2023-04-24T01:19:39;99696.40;;;
79488;BMP180;68949;53.176;18.088;2023-04-24T01:22:13;99691.20;;;
79488;BMP180;68949;53.176;18.088;2023-04-24T01:24:41;99693.80;;;
79488;BMP180;68949;53.176;18.088;2023-04-24T01:27:10;99693.00;;;
79488;BMP180;68949;53.176;18.088;2023-04-24T01:29:38;99687.60;;;
79488;BMP180;68949;53.176;18.088;2023-04-24T01:32:05;99681.80;;;
79488;BMP180;68949;53.176;18.088;2023-04-24T01:34:33;99676.40;;;
79488;BMP180;68949;53.176;18.088;2023-04-24T01:37:00;99673.60;;;
79488;BMP180;68949;53.176;18.088;2023-04-24T01:39:27;99671.60;;;
79488;BMP180;68949;53.176;18.088;2023-04-24T01:41:55;99680.00;;;
79488;BMP180;68949;53.176;18.088;2023-04-24T01:44:23;99680.60;;;
79488;BMP180;68949;53.176;18.088;2023-04-24T01:46:50;99679.60;;;
79488;BMP180;68949;53.176;18.088;2023-04-24T01:49:17;99680.00;;;
79488;BMP180;68949;53.176;18.088;2023-04-24T01:51:45;99677.00;;;
79488;BMP180;68949;53.176;18.088;2023-04-24T01:54:12;99673.40;;;
79488;BMP180;68949;53.176;18.088;2023-04-24T01:56:42;99673.40;;;
79488;BMP180;68949;53.176;18.088;2023-04-24T01:59:12;99668.60;;;
79488;BMP180;68949;53.176;18.088;2023-04-24T02:01:39;99665.20;;;
79488;BMP180;68949;53.176;18.088;2023-04-24T02:04:07;99667.40;;;
79488;BMP180;68949;53.176;18.088;2023-04-24T02:06:35;99663.60;;;
79488;BMP180;68949;53.176;18.088;2023-04-24T02:09:03;99668.80;;;
79488;BMP180;68949;53.176;18.088;2023-04-24T02:11:30;99668.20;;;
79488;BMP180;68949;53.176;18.088;2023-04-24T02:13:57;99661.00;;;
79488;BMP180;68949;53.176;18.088;2023-04-24T02:16:25;99664.00;;;
79488;BMP180;68949;53.176;18.088;2023-04-24T02:18:52;99661.20;;;
79488;BMP180;68949;53.176;18.088;2023-04-24T02:21:19;99661.80;;;
79488;BMP180;68949;53.176;18.088;2023-04-24T02:23:45;99656.80;;;
79488;BMP180;68949;53.176;18.088;2023-04-24T02:26:13;99651.60;;;
79488;BMP180;68949;53.176;18.088;2023-04-24T02:28:39;99650.20;;;
79488;BMP180;68949;53.176;18.088;2023-04-24T02:31:06;99649.00;;;
79488;BMP180;68949;53.176;18.088;2023-04-24T02:33:33;99645.80;;;
79488;BMP180;68949;53.176;18.088;2023-04-24T02:36:00;99638.40;;;
79488;BMP180;68949;53.176;18.088;2023-04-24T02:38:27;99637.00;;;
79488;BMP180;68949;53.176;18.088;2023-04-24T02:40:53;99638.60;;;
79488;BMP180;68949;53.176;18.088;2023-04-24T02:43:21;99639.40;;;
79488;BMP180;68949;53.176;18.088;2023-04-24T02:45:47;99639.60;;;
79488;BMP180;68949;53.176;18.088;2023-04-24T02:48:14;99637.80;;;
79488;BMP180;68949;53.176;18.088;2023-04-24T02:50:41;99634.60;;;
79488;BMP180;68949;53.176;18.088;2023-04-24T02:53:08;99629.00;;;
79488;BMP180;68949;53.176;18.088;2023-04-24T02:55:35;99621.20;;;
79488;BMP180;68949;53.176;18.088;2023-04-24T02:58:02;99620.60;;;
79488;BMP180;68949;53.176;18.088;2023-04-24T03:00:29;99624.20;;;
79488;BMP180;68949;53.176;18.088;2023-04-24T03:02:56;99621.80;;;
79488;BMP180;68949;53.176;18.088;2023-04-24T03:05:23;99620.40;;;
79488;BMP180;68949;53.176;18.088;2023-04-24T03:07:50;99621.80;;;
79488;BMP180;68949;53.176;18.088;2023-04-24T03:10:19;99621.60;;;
79488;BMP180;68949;53.176;18.088;2023-04-24T03:12:45;99616.80;;;
79488;BMP180;68949;53.176;18.088;2023-04-24T03:15:12;99619.40;;;
79488;BMP180;68949;53.176;18.088;2023-04-24T03:17:39;99625.40;;;
79488;BMP180;68949;53.176;18.088;2023-04-24T03:20:08;99628.20;;;
79488;BMP180;68949;53.176;18.088;2023-04-24T03:22:35;99628.80;;;
79488;BMP180;68949;53.176;18.088;2023-04-24T03:25:04;99623.60;;;
79488;BMP180;68949;53.176;18.088;2023-04-24T03:27:31;99623.60;;;
79488;BMP180;68949;53.176;18.088;2023-04-24T03:30:03;99622.20;;;
79488;BMP180;68949;53.176;18.088;2023-04-24T03:32:38;99623.40;;;
79488;BMP180;68949;53.176;18.088;2023-04-24T03:35:07;99635.40;;;
79488;BMP180;68949;53.176;18.088;2023-04-24T03:37:35;99629.00;;;
79488;BMP180;68949;53.176;18.088;2023-04-24T03:40:20;99635.20;;;
79488;BMP180;68949;53.176;18.088;2023-04-24T03:42:47;99643.00;;;
79488;BMP180;68949;53.176;18.088;2023-04-24T03:45:14;99650.80;;;
79488;BMP180;68949;53.176;18.088;2023-04-24T03:47:42;99653.40;;;
79488;BMP180;68949;53.176;18.088;2023-04-24T03:50:09;99655.60;;;
79488;BMP180;68949;53.176;18.088;2023-04-24T03:52:36;99656.00;;;
79488;BMP180;68949;53.176;18.088;2023-04-24T03:55:03;99648.20;;;
79488;BMP180;68949;53.176;18.088;2023-04-24T03:57:31;99643.00;;;
79488;BMP180;68949;53.176;18.088;2023-04-24T04:00:13;99639.60;;;
79488;BMP180;68949;53.176;18.088;2023-04-24T04:02:44;99637.40;;;
79488;BMP180;68949;53.176;18.088;2023-04-24T04:05:11;99634.60;;;
79488;BMP180;68949;53.176;18.088;2023-04-24T04:07:38;99632.60;;;
79488;BMP180;68949;53.176;18.088;2023-04-24T04:10:05;99633.60;;;
79488;BMP180;68949;53.176;18.088;2023-04-24T04:12:33;99623.40;;;
79488;BMP180;68949;53.176;18.088;2023-04-24T04:15:00;99617.40;;;
79488;BMP180;68949;53.176;18.088;2023-04-24T04:17:27;99613.20;;;
79488;BMP180;68949;53.176;18.088;2023-04-24T04:19:54;99612.60;;;
79488;BMP180;68949;53.176;18.088;2023-04-24T04:22:21;99610.80;;;
79488;BMP180;68949;53.176;18.088;2023-04-24T04:24:50;99613.00;;;
79488;BMP180;68949;53.176;18.088;2023-04-24T04:27:19;99613.60;;;
79488;BMP180;68949;53.176;18.088;2023-04-24T04:30:01;99608.00;;;
79488;BMP180;68949;53.176;18.088;2023-04-24T04:32:32;99610.20;;;
79488;BMP180;68949;53.176;18.088;2023-04-24T04:35:00;99610.00;;;
79488;BMP180;68949;53.176;18.088;2023-04-24T04:37:32;99610.20;;;
79488;BMP180;68949;53.176;18.088;2023-04-24T04:40:22;99609.20;;;
79488;BMP180;68949;53.176;18.088;2023-04-24T04:42:54;99606.80;;;
79488;BMP180;68949;53.176;18.088;2023-04-24T04:45:21;99609.00;;;
79488;BMP180;68949;53.176;18.088;2023-04-24T04:48:09;99605.00;;;
79488;BMP180;68949;53.176;18.088;2023-04-24T04:50:36;99605.60;;;
79488;BMP180;68949;53.176;18.088;2023-04-24T04:53:06;99606.00;;;
79488;BMP180;68949;53.176;18.088;2023-04-24T04:55:34;99605.60;;;
79488;BMP180;68949;53.176;18.088;2023-04-24T04:58:07;99606.80;;;
79488;BMP180;68949;53.176;18.088;2023-04-24T05:00:34;99603.60;;;
79488;BMP180;68949;53.176;18.088;2023-04-24T05:03:11;99599.60;;;
79488;BMP180;68949;53.176;18.088;2023-04-24T05:05:38;99597.80;;;
79488;BMP180;68949;53.176;18.088;2023-04-24T05:08:09;99597.60;;;
79488;BMP180;68949;53.176;18.088;2023-04-24T05:10:36;99589.80;;;
79488;BMP180;68949;53.176;18.088;2023-04-24T05:13:03;99586.80;;;
79488;BMP180;68949;53.176;18.088;2023-04-24T05:15:31;99583.40;;;
79488;BMP180;68949;53.176;18.088;2023-04-24T05:17:58;99577.40;;;
79488;BMP180;68949;53.176;18.088;2023-04-24T05:20:25;99577.40;;;
79488;BMP180;68949;53.176;18.088;2023-04-24T05:22:52;99577.20;;;
79488;BMP180;68949;53.176;18.088;2023-04-24T05:25:19;99573.40;;;
79488;BMP180;68949;53.176;18.088;2023-04-24T05:27:59;99577.80;;;
79488;BMP180;68949;53.176;18.088;2023-04-24T05:30:26;99581.60;;;
79488;BMP180;68949;53.176;18.088;2023-04-24T05:32:54;99572.20;;;
79488;BMP180;68949;53.176;18.088;2023-04-24T05:35:21;99573.20;;;
79488;BMP180;68949;53.176;18.088;2023-04-24T05:37:48;99567.00;;;
79488;BMP180;68949;53.176;18.088;2023-04-24T05:40:14;99564.60;;;
79488;BMP180;68949;53.176;18.088;2023-04-24T05:42:42;99568.00;;;
79488;BMP180;68949;53.176;18.088;2023-04-24T05:45:09;99572.80;;;
79488;BMP180;68949;53.176;18.088;2023-04-24T05:47:43;99574.40;;;
79488;BMP180;68949;53.176;18.088;2023-04-24T05:50:11;99573.40;;;
79488;BMP180;68949;53.176;18.088;2023-04-24T05:52:38;99563.40;;;
79488;BMP180;68949;53.176;18.088;2023-04-24T05:55:11;99554.80;;;
79488;BMP180;68949;53.176;18.088;2023-04-24T05:57:38;99552.00;;;
79488;BMP180;68949;53.176;18.088;2023-04-24T06:00:06;99546.80;;;
79488;BMP180;68949;53.176;18.088;2023-04-24T06:02:46;99539.80;;;
79488;BMP180;68949;53.176;18.088;2023-04-24T06:05:13;99547.80;;;
79488;BMP180;68949;53.176;18.088;2023-04-24T06:07:41;99552.80;;;
79488;BMP180;68949;53.176;18.088;2023-04-24T06:10:09;99543.60;;;
79488;BMP180;68949;53.176;18.088;2023-04-24T06:12:40;99531.80;;;
79488;BMP180;68949;53.176;18.088;2023-04-24T06:15:12;99528.20;;;
79488;BMP180;68949;53.176;18.088;2023-04-24T06:17:53;99531.60;;;
79488;BMP180;68949;53.176;18.088;2023-04-24T06:20:20;99530.00;;;
79488;BMP180;68949;53.176;18.088;2023-04-24T06:22:47;99526.60;;;
79488;BMP180;68949;53.176;18.088;2023-04-24T06:25:14;99537.60;;;
79488;BMP180;68949;53.176;18.088;2023-04-24T06:27:41;99531.80;;;
79488;BMP180;68949;53.176;18.088;2023-04-24T06:30:09;99528.80;;;
79488;BMP180;68949;53.176;18.088;2023-04-24T06:32:36;99525.40;;;
79488;BMP180;68949;53.176;18.088;2023-04-24T06:35:03;99523.80;;;
79488;BMP180;68949;53.176;18.088;2023-04-24T06:37:30;99516.20;;;
79488;BMP180;68949;53.176;18.088;2023-04-24T06:39:58;99500.80;;;
79488;BMP180;68949;53.176;18.088;2023-04-24T06:42:25;99498.00;;;
79488;BMP180;68949;53.176;18.088;2023-04-24T06:44:52;99505.80;;;
79488;BMP180;68949;53.176;18.088;2023-04-24T06:47:18;99514.20;;;
79488;BMP180;68949;53.176;18.088;2023-04-24T06:49:45;99500.20;;;
79488;BMP180;68949;53.176;18.088;2023-04-24T06:52:12;99502.20;;;
79488;BMP180;68949;53.176;18.088;2023-04-24T06:54:38;99503.00;;;
79488;BMP180;68949;53.176;18.088;2023-04-24T06:57:05;99507.80;;;
79488;BMP180;68949;53.176;18.088;2023-04-24T06:59:32;99506.80;;;
79488;BMP180;68949;53.176;18.088;2023-04-24T07:01:58;99506.40;;;
79488;BMP180;68949;53.176;18.088;2023-04-24T07:04:25;99501.00;;;
79488;BMP180;68949;53.176;18.088;2023-04-24T07:06:53;99502.60;;;
79488;BMP180;68949;53.176;18.088;2023-04-24T07:09:24;99511.00;;;
79488;BMP180;68949;53.176;18.088;2023-04-24T07:11:52;99506.00;;;
79488;BMP180;68949;53.176;18.088;2023-04-24T07:14:20;99507.40;;;
79488;BMP180;68949;53.176;18.088;2023-04-24T07:16:47;99500.00;;;
79488;BMP180;68949;53.176;18.088;2023-04-24T07:19:13;99499.00;;;
79488;BMP180;68949;53.176;18.088;2023-04-24T07:21:40;99495.20;;;
79488;BMP180;68949;53.176;18.088;2023-04-24T07:24:07;99492.80;;;
79488;BMP180;68949;53.176;18.088;2023-04-24T07:26:37;99481.20;;;
79488;BMP180;68949;53.176;18.088;2023-04-24T07:29:06;99477.80;;;
79488;BMP180;68949;53.176;18.088;2023-04-24T07:31:33;99469.60;;;
79488;BMP180;68949;53.176;18.088;2023-04-24T07:34:00;99468.80;;;
79488;BMP180;68949;53.176;18.088;2023-04-24T07:36:27;99461.80;;;
79488;BMP180;68949;53.176;18.088;2023-04-24T07:38:54;99471.20;;;
79488;BMP180;68949;53.176;18.088;2023-04-24T07:41:22;99469.60;;;
79488;BMP180;68949;53.176;18.088;2023-04-24T07:43:50;99468.60;;;
79488;BMP180;68949;53.176;18.088;2023-04-24T07:46:17;99467.80;;;
79488;BMP180;68949;53.176;18.088;2023-04-24T07:48:44;99467.20;;;
79488;BMP180;68949;53.176;18.088;2023-04-24T07:51:12;99463.40;;;
79488;BMP180;68949;53.176;18.088;2023-04-24T07:53:40;99447.60;;;
79488;BMP180;68949;53.176;18.088;2023-04-24T07:56:06;99444.20;;;
79488;BMP180;68949;53.176;18.088;2023-04-24T07:58:34;99447.40;;;
79488;BMP180;68949;53.176;18.088;2023-04-24T08:01:01;99452.80;;;
79488;BMP180;68949;53.176;18.088;2023-04-24T08:03:28;99451.20;;;
79488;BMP180;68949;53.176;18.088;2023-04-24T08:05:54;99458.20;;;
79488;BMP180;68949;53.176;18.088;2023-04-24T08:08:22;99443.20;;;
79488;BMP180;68949;53.176;18.088;2023-04-24T08:10:50;99434.20;;;
79488;BMP180;68949;53.176;18.088;2023-04-24T08:13:16;99439.00;;;
79488;BMP180;68949;53.176;18.088;2023-04-24T08:15:43;99435.20;;;
79488;BMP180;68949;53.176;18.088;2023-04-24T08:18:10;99434.40;;;
79488;BMP180;68949;53.176;18.088;2023-04-24T08:20:39;99415.20;;;
79488;BMP180;68949;53.176;18.088;2023-04-24T08:23:06;99433.20;;;
79488;BMP180;68949;53.176;18.088;2023-04-24T08:25:33;99437.00;;;
79488;BMP180;68949;53.176;18.088;2023-04-24T08:28:06;99423.40;;;
79488;BMP180;68949;53.176;18.088;2023-04-24T08:30:33;99421.40;;;
79488;BMP180;68949;53.176;18.088;2023-04-24T08:32:59;99425.80;;;
79488;BMP180;68949;53.176;18.088;2023-04-24T08:35:26;99426.00;;;
79488;BMP180;68949;53.176;18.088;2023-04-24T08:37:53;99404.60;;;
79488;BMP180;68949;53.176;18.088;2023-04-24T08:40:27;99415.20;;;
79488;BMP180;68949;53.176;18.088;2023-04-24T08:42:59;99405.80;;;
79488;BMP180;68949;53.176;18.088;2023-04-24T08:45:26;99404.00;;;
79488;BMP180;68949;53.176;18.088;2023-04-24T08:47:53;99407.80;;;
79488;BMP180;68949;53.176;18.088;2023-04-24T08:50:22;99401.20;;;
79488;BMP180;68949;53.176;18.088;2023-04-24T08:52:52;99393.20;;;
79488;BMP180;68949;53.176;18.088;2023-04-24T08:55:20;99388.40;;;
79488;BMP180;68949;53.176;18.088;2023-04-24T08:57:52;99396.60;;;
79488;BMP180;68949;53.176;18.088;2023-04-24T09:00:21;99398.40;;;
79488;BMP180;68949;53.176;18.088;2023-04-24T09:02:49;99386.40;;;
79488;BMP180;68949;53.176;18.088;2023-04-24T09:05:17;99394.60;;;
79488;BMP180;68949;53.176;18.088;2023-04-24T09:07:54;99400.40;;;
79488;BMP180;68949;53.176;18.088;2023-04-24T09:10:24;99402.00;;;
79488;BMP180;68949;53.176;18.088;2023-04-24T09:12:51;99406.80;;;
79488;BMP180;68949;53.176;18.088;2023-04-24T09:15:19;99391.00;;;
79488;BMP180;68949;53.176;18.088;2023-04-24T09:17:47;99397.80;;;
79488;BMP180;68949;53.176;18.088;2023-04-24T09:20:14;99402.60;;;
79488;BMP180;68949;53.176;18.088;2023-04-24T09:22:42;99409.20;;;
79488;BMP180;68949;53.176;18.088;2023-04-24T09:25:10;99394.00;;;
79488;BMP180;68949;53.176;18.088;2023-04-24T09:27:43;99417.80;;;
79488;BMP180;68949;53.176;18.088;2023-04-24T09:30:12;99410.40;;;
79488;BMP180;68949;53.176;18.088;2023-04-24T09:32:39;99413.40;;;
79488;BMP180;68949;53.176;18.088;2023-04-24T09:35:11;99430.20;;;
79488;BMP180;68949;53.176;18.088;2023-04-24T09:37:42;99438.40;;;
79488;BMP180;68949;53.176;18.088;2023-04-24T09:40:21;99431.00;;;
79488;BMP180;68949;53.176;18.088;2023-04-24T09:42:55;99435.60;;;
79488;BMP180;68949;53.176;18.088;2023-04-24T09:45:34;99431.20;;;
79488;BMP180;68949;53.176;18.088;2023-04-24T09:48:02;99422.80;;;
79488;BMP180;68949;53.176;18.088;2023-04-24T09:50:31;99417.40;;;
79488;BMP180;68949;53.176;18.088;2023-04-24T09:53:04;99418.20;;;
79488;BMP180;68949;53.176;18.088;2023-04-24T09:55:32;99405.60;;;
79488;BMP180;68949;53.176;18.088;2023-04-24T09:58:00;99417.00;;;
79488;BMP180;68949;53.176;18.088;2023-04-24T10:00:30;99409.60;;;
79488;BMP180;68949;53.176;18.088;2023-04-24T10:03:00;99403.20;;;
79488;BMP180;68949;53.176;18.088;2023-04-24T10:05:37;99405.80;;;
79488;BMP180;68949;53.176;18.088;2023-04-24T10:08:10;99390.80;;;
79488;BMP180;68949;53.176;18.088;2023-04-24T10:10:43;99384.00;;;
79488;BMP180;68949;53.176;18.088;2023-04-24T10:13:12;99374.40;;;
79488;BMP180;68949;53.176;18.088;2023-04-24T10:15:41;99380.00;;;
79488;BMP180;68949;53.176;18.088;2023-04-24T10:18:10;99364.20;;;
79488;BMP180;68949;53.176;18.088;2023-04-24T10:20:39;99368.60;;;
79488;BMP180;68949;53.176;18.088;2023-04-24T10:23:07;99356.20;;;
79488;BMP180;68949;53.176;18.088;2023-04-24T10:25:35;99351.00;;;
79488;BMP180;68949;53.176;18.088;2023-04-24T10:28:04;99352.40;;;
79488;BMP180;68949;53.176;18.088;2023-04-24T10:30:34;99357.60;;;
79488;BMP180;68949;53.176;18.088;2023-04-24T10:33:06;99365.00;;;
79488;BMP180;68949;53.176;18.088;2023-04-24T10:35:40;99366.00;;;
79488;BMP180;68949;53.176;18.088;2023-04-24T10:38:14;99366.00;;;
79488;BMP180;68949;53.176;18.088;2023-04-24T10:40:42;99378.20;;;
79488;BMP180;68949;53.176;18.088;2023-04-24T10:43:10;99358.20;;;
79488;BMP180;68949;53.176;18.088;2023-04-24T10:45:38;99359.00;;;
79488;BMP180;68949;53.176;18.088;2023-04-24T10:48:08;99352.60;;;
79488;BMP180;68949;53.176;18.088;2023-04-24T10:50:53;99362.20;;;
79488;BMP180;68949;53.176;18.088;2023-04-24T10:53:29;99366.40;;;
79488;BMP180;68949;53.176;18.088;2023-04-24T10:56:09;99352.60;;;
79488;BMP180;68949;53.176;18.088;2023-04-24T10:58:50;99367.80;;;
79488;BMP180;68949;53.176;18.088;2023-04-24T11:01:32;99373.80;;;
79488;BMP180;68949;53.176;18.088;2023-04-24T11:04:01;99357.20;;;
79488;BMP180;68949;53.176;18.088;2023-04-24T11:06:34;99369.20;;;
79488;BMP180;68949;53.176;18.088;2023-04-24T11:09:04;99378.20;;;
79488;BMP180;68949;53.176;18.088;2023-04-24T11:11:36;99352.80;;;
79488;BMP180;68949;53.176;18.088;2023-04-24T11:14:06;99367.80;;;
79488;BMP180;68949;53.176;18.088;2023-04-24T11:16:45;99359.80;;;
79488;BMP180;68949;53.176;18.088;2023-04-24T11:21:59;99361.60;;;
79488;BMP180;68949;53.176;18.088;2023-04-24T11:24:39;99374.80;;;
79488;BMP180;68949;53.176;18.088;2023-04-24T11:27:17;99388.20;;;
79488;BMP180;68949;53.176;18.088;2023-04-24T11:29:49;99388.00;;;
79488;BMP180;68949;53.176;18.088;2023-04-24T11:37:39;99395.40;;;
79488;BMP180;68949;53.176;18.088;2023-04-24T11:40:10;99382.00;;;
79488;BMP180;68949;53.176;18.088;2023-04-24T11:42:43;99379.60;;;
79488;BMP180;68949;53.176;18.088;2023-04-24T11:45:25;99380.20;;;
79488;BMP180;68949;53.176;18.088;2023-04-24T11:47:53;99382.00;;;
79488;BMP180;68949;53.176;18.088;2023-04-24T11:50:23;99384.20;;;
79488;BMP180;68949;53.176;18.088;2023-04-24T11:52:52;99384.80;;;
79488;BMP180;68949;53.176;18.088;2023-04-24T11:57:51;99380.00;;;
79488;BMP180;68949;53.176;18.088;2023-04-24T12:00:23;99370.20;;;
79488;BMP180;68949;53.176;18.088;2023-04-24T12:02:51;99362.60;;;
79488;BMP180;68949;53.176;18.088;2023-04-24T12:05:23;99378.60;;;
79488;BMP180;68949;53.176;18.088;2023-04-24T12:07:49;99371.20;;;
79488;BMP180;68949;53.176;18.088;2023-04-24T12:10:22;99361.40;;;
79488;BMP180;68949;53.176;18.088;2023-04-24T12:12:50;99357.60;;;
79488;BMP180;68949;53.176;18.088;2023-04-24T12:15:20;99353.00;;;
79488;BMP180;68949;53.176;18.088;2023-04-24T12:17:47;99349.80;;;
79488;BMP180;68949;53.176;18.088;2023-04-24T12:20:14;99357.00;;;
79488;BMP180;68949;53.176;18.088;2023-04-24T12:22:55;99355.60;;;
79488;BMP180;68949;53.176;18.088;2023-04-24T12:25:27;99346.00;;;
79488;BMP180;68949;53.176;18.088;2023-04-24T12:28:12;99325.60;;;
79488;BMP180;68949;53.176;18.088;2023-04-24T12:30:46;99337.00;;;
79488;BMP180;68949;53.176;18.088;2023-04-24T12:33:19;99340.60;;;
79488;BMP180;68949;53.176;18.088;2023-04-24T12:35:50;99333.20;;;
79488;BMP180;68949;53.176;18.088;2023-04-24T12:38:22;99324.20;;;
79488;BMP180;68949;53.176;18.088;2023-04-24T12:41:09;99321.80;;;
79488;BMP180;68949;53.176;18.088;2023-04-24T12:43:37;99325.60;;;
79488;BMP180;68949;53.176;18.088;2023-04-24T12:46:04;99309.00;;;
79488;BMP180;68949;53.176;18.088;2023-04-24T12:48:31;99312.40;;;
79488;BMP180;68949;53.176;18.088;2023-04-24T12:50:59;99319.20;;;
79488;BMP180;68949;53.176;18.088;2023-04-24T12:53:28;99302.60;;;
79488;BMP180;68949;53.176;18.088;2023-04-24T12:55:56;99301.80;;;
79488;BMP180;68949;53.176;18.088;2023-04-24T12:58:23;99290.20;;;
79488;BMP180;68949;53.176;18.088;2023-04-24T13:00:51;99290.00;;;
79488;BMP180;68949;53.176;18.088;2023-04-24T13:03:18;99296.40;;;
79488;BMP180;68949;53.176;18.088;2023-04-24T13:05:45;99295.40;;;
79488;BMP180;68949;53.176;18.088;2023-04-24T13:08:12;99300.00;;;
79488;BMP180;68949;53.176;18.088;2023-04-24T13:10:39;99266.40;;;
79488;BMP180;68949;53.176;18.088;2023-04-24T13:13:07;99279.20;;;
79488;BMP180;68949;53.176;18.088;2023-04-24T13:15:34;99270.80;;;
79488;BMP180;68949;53.176;18.088;2023-04-24T13:18:02;99269.60;;;
79488;BMP180;68949;53.176;18.088;2023-04-24T13:20:28;99258.60;;;
79488;BMP180;68949;53.176;18.088;2023-04-24T13:22:55;99254.00;;;
79488;BMP180;68949;53.176;18.088;2023-04-24T13:25:22;99262.40;;;
79488;BMP180;68949;53.176;18.088;2023-04-24T13:27:49;99271.60;;;
79488;BMP180;68949;53.176;18.088;2023-04-24T13:30:17;99264.80;;;
79488;BMP180;68949;53.176;18.088;2023-04-24T13:32:44;99257.00;;;
79488;BMP180;68949;53.176;18.088;2023-04-24T13:35:11;99274.40;;;
79488;BMP180;68949;53.176;18.088;2023-04-24T13:37:37;99276.20;;;
79488;BMP180;68949;53.176;18.088;2023-04-24T13:40:05;99286.20;;;
79488;BMP180;68949;53.176;18.088;2023-04-24T13:42:32;99293.20;;;
79488;BMP180;68949;53.176;18.088;2023-04-24T13:44:59;99291.80;;;
79488;BMP180;68949;53.176;18.088;2023-04-24T13:47:26;99303.80;;;
79488;BMP180;68949;53.176;18.088;2023-04-24T13:49:53;99313.00;;;
79488;BMP180;68949;53.176;18.088;2023-04-24T13:52:20;99316.80;;;
79488;BMP180;68949;53.176;18.088;2023-04-24T13:54:47;99319.60;;;
79488;BMP180;68949;53.176;18.088;2023-04-24T13:57:14;99319.00;;;
79488;BMP180;68949;53.176;18.088;2023-04-24T13:59:42;99310.60;;;
79488;BMP180;68949;53.176;18.088;2023-04-24T14:02:09;99314.00;;;
79488;BMP180;68949;53.176;18.088;2023-04-24T14:04:38;99300.80;;;
79488;BMP180;68949;53.176;18.088;2023-04-24T14:07:05;99296.60;;;
79488;BMP180;68949;53.176;18.088;2023-04-24T14:09:32;99315.80;;;
79488;BMP180;68949;53.176;18.088;2023-04-24T14:11:59;99316.40;;;
79488;BMP180;68949;53.176;18.088;2023-04-24T14:14:27;99307.00;;;
79488;BMP180;68949;53.176;18.088;2023-04-24T14:16:58;99308.40;;;
79488;BMP180;68949;53.176;18.088;2023-04-24T14:19:25;99304.00;;;
79488;BMP180;68949;53.176;18.088;2023-04-24T14:21:52;99306.00;;;
79488;BMP180;68949;53.176;18.088;2023-04-24T14:24:18;99299.20;;;
79488;BMP180;68949;53.176;18.088;2023-04-24T14:26:45;99309.80;;;
79488;BMP180;68949;53.176;18.088;2023-04-24T14:29:12;99310.00;;;
79488;BMP180;68949;53.176;18.088;2023-04-24T14:31:38;99306.20;;;
79488;BMP180;68949;53.176;18.088;2023-04-24T14:34:05;99306.40;;;
79488;BMP180;68949;53.176;18.088;2023-04-24T14:36:32;99317.00;;;
79488;BMP180;68949;53.176;18.088;2023-04-24T14:38:59;99320.20;;;
79488;BMP180;68949;53.176;18.088;2023-04-24T14:41:25;99321.60;;;
79488;BMP180;68949;53.176;18.088;2023-04-24T14:43:52;99314.60;;;
79488;BMP180;68949;53.176;18.088;2023-04-24T14:46:19;99313.20;;;
79488;BMP180;68949;53.176;18.088;2023-04-24T14:48:46;99310.40;;;
79488;BMP180;68949;53.176;18.088;2023-04-24T14:51:13;99310.80;;;
79488;BMP180;68949;53.176;18.088;2023-04-24T14:53:40;99307.00;;;
79488;BMP180;68949;53.176;18.088;2023-04-24T14:56:07;99309.40;;;
79488;BMP180;68949;53.176;18.088;2023-04-24T14:58:34;99303.40;;;
79488;BMP180;68949;53.176;18.088;2023-04-24T15:01:01;99290.80;;;
79488;BMP180;68949;53.176;18.088;2023-04-24T15:03:27;99272.80;;;
79488;BMP180;68949;53.176;18.088;2023-04-24T15:05:55;99278.60;;;
79488;BMP180;68949;53.176;18.088;2023-04-24T15:08:22;99268.60;;;
79488;BMP180;68949;53.176;18.088;2023-04-24T15:10:48;99267.00;;;
79488;BMP180;68949;53.176;18.088;2023-04-24T15:13:15;99263.40;;;
79488;BMP180;68949;53.176;18.088;2023-04-24T15:15:43;99257.00;;;
79488;BMP180;68949;53.176;18.088;2023-04-24T15:18:10;99266.20;;;
79488;BMP180;68949;53.176;18.088;2023-04-24T15:20:38;99263.20;;;